Hauptseite
METAR-TAF:

METAR-TAF

Flughäfen :

Flughafen Guangzhou

Guangzhou, China

Breite: 23-10N, Länge: 113-20E, Höhe: 8 m

Beobachtung

Neuester Wetterbericht von vor 37 Minuten, um 19:30 UTC
Wind 12 kt aus Nord
Temperatur 13°C
Luftfeuchtigkeit 58%
Luftdruck 1023 hPa
Sichtweite 10 km oder mehr
Durchbrochene Bewölkung in der Höhe von 4600 ft

METAR: ZGGG 201930Z 01006MPS 9999 BKN046 13/05 Q1023 NOSIG

Zeit: 04:07 (20:07 UTC)

Prognose

Neuester Wetterbericht von vor 5 Stunden und 3 Minuten, um 15:04 UTC
Gültige Prognose vom 20 um 18 UTC bis 21 um 18 UTC
Wind 12 kt aus Nord
Sichtweite: 8000 m
Durchbrochene Bewölkung in der Höhe von 4000 ft

TAF: ZGGG 201504Z 2018/2118 36006MPS 8000 BKN040 TX17/2107Z TN11/2022Z

Wetterbeobachtungen und Prognosen von mehr als 4000 Flughäfen (METAR und TAF Bericht).

Die verfügbaren Stationen werden durch gelbe und rote Markierungen auf der Karte dargestellt.

Führen Sie die Maus auf sie, um den Namen der Station zu sehen.

Darauf klicken, um die Beobachtung von Wetterbeobachtungen und Prognosen zu sehen.

Um die Karte zu ändern : klicken Sie auf den grünen Tasten mit einem schwarzen Kreuz Zum Vergrößern, auf den grünen Button mit einem Gedankenstrich zu verkleinern, oder auf die grünen Pfeile für benachbarte Karten.


METAR-TAF: